Time,TemperatureF,DewpointF,PressureIn,WindDirection,WindDirectionDegrees,WindSpeedMPH,WindSpeedGustMPH,Humidity,HourlyPrecipIn,Conditions,Clouds,dailyrainin,SoftwareType,DateUTC
2013-06-15 00:08:00,58.0,47.9,29.82,WSW,248,0.0,0.0,69,0.00,,,-99.99,Weather View 32 v70,2013-06-15 07:08:00,
2013-06-15 00:15:00,60.0,52.4,29.82,WSW,248,0.0,0.0,76,0.00,,,-99.99,Weather View 32 v70,2013-06-15 07:15:00,
2013-06-15 00:23:00,60.0,52.4,29.82,WSW,248,0.0,0.0,76,0.00,,,-99.99,Weather View 32 v70,2013-06-15 07:23:00,
2013-06-15 00:38:00,57.0,48.4,29.82,WSW,248,0.0,0.0,73,0.00,,,-99.99,Weather View 32 v70,2013-06-15 07:38:00,
2013-06-15 00:53:00,57.0,49.5,29.81,WSW,248,0.0,0.0,76,0.00,,,-99.99,Weather View 32 v70,2013-06-15 07:53:00,
2013-06-15 01:08:00,56.0,48.2,29.81,WSW,248,0.0,0.0,75,0.00,,,-99.99,Weather View 32 v70,2013-06-15 08:08:00,
2013-06-15 01:15:00,56.0,49.2,29.81,WSW,248,0.0,0.0,78,0.00,,,-99.99,Weather View 32 v70,2013-06-15 08:15:00,
2013-06-15 01:23:00,56.0,49.2,29.81,WSW,248,0.0,0.0,78,0.00,,,-99.99,Weather View 32 v70,2013-06-15 08:23:00,
2013-06-15 01:38:00,55.0,48.3,29.81,WSW,248,0.0,0.0,78,0.00,,,-99.99,Weather View 32 v70,2013-06-15 08:38:00,
2013-06-15 01:53:00,55.0,48.9,29.80,WSW,248,0.0,0.0,80,0.00,,,-99.99,Weather View 32 v70,2013-06-15 08:53:00,
2013-06-15 02:08:00,55.0,48.9,29.80,WSW,248,0.0,0.0,80,0.00,,,-99.99,Weather View 32 v70,2013-06-15 09:08:00,
2013-06-15 02:15:00,54.0,48.0,29.80,WSW,248,0.0,0.0,80,0.00,,,-99.99,Weather View 32 v70,2013-06-15 09:15:00,
2013-06-15 02:23:00,54.0,48.0,29.80,WSW,248,0.0,0.0,80,0.00,,,-99.99,Weather View 32 v70,2013-06-15 09:23:00,
2013-06-15 02:38:00,53.0,47.6,29.81,WSW,248,0.0,0.0,82,0.00,,,-99.99,Weather View 32 v70,2013-06-15 09:38:00,
2013-06-15 02:53:00,53.0,48.0,29.81,WSW,248,0.0,0.0,83,0.00,,,-99.99,Weather View 32 v70,2013-06-15 09:53:00,
2013-06-15 03:08:00,52.0,47.0,29.80,WSW,248,0.0,0.0,83,0.00,,,-99.99,Weather View 32 v70,2013-06-15 10:08:00,
2013-06-15 03:15:00,53.0,48.9,29.80,WSW,248,0.0,0.0,86,0.00,,,-99.99,Weather View 32 v70,2013-06-15 10:15:00,
2013-06-15 03:23:00,53.0,48.9,29.80,WSW,248,0.0,0.0,86,0.00,,,-99.99,Weather View 32 v70,2013-06-15 10:23:00,
2013-06-15 03:38:00,53.0,48.6,29.80,WSW,248,0.0,0.0,85,0.00,,,-99.99,Weather View 32 v70,2013-06-15 10:38:00,
2013-06-15 03:53:00,53.0,48.9,29.80,WSW,248,0.0,0.0,86,0.00,,,-99.99,Weather View 32 v70,2013-06-15 10:53:00,
2013-06-15 04:08:00,52.0,48.2,29.81,WSW,248,0.0,0.0,87,0.00,,,-99.99,Weather View 32 v70,2013-06-15 11:08:00,
2013-06-15 04:15:00,52.0,48.9,29.80,WSW,248,0.0,0.0,89,0.00,,,-99.99,Weather View 32 v70,2013-06-15 11:15:00,
2013-06-15 04:23:00,52.0,48.9,29.80,WSW,248,0.0,0.0,89,0.00,,,-99.99,Weather View 32 v70,2013-06-15 11:23:00,
2013-06-15 04:38:00,52.0,48.5,29.81,WSW,248,0.0,0.0,88,0.00,,,-99.99,Weather View 32 v70,2013-06-15 11:38:00,
2013-06-15 04:53:00,52.0,48.5,29.81,WSW,248,0.0,0.0,88,0.00,,,-99.99,Weather View 32 v70,2013-06-15 11:53:00,
2013-06-15 05:08:00,52.0,48.5,29.81,WSW,248,0.0,0.0,88,0.00,,,-99.99,Weather View 32 v70,2013-06-15 12:08:00,
2013-06-15 05:15:00,52.0,47.9,29.82,WSW,248,0.0,0.0,86,0.00,,,-99.99,Weather View 32 v70,2013-06-15 12:15:00,
2013-06-15 05:23:00,52.0,47.9,29.82,WSW,248,0.0,0.0,86,0.00,,,-99.99,Weather View 32 v70,2013-06-15 12:23:00,
2013-06-15 05:38:00,52.0,47.9,29.82,WSW,248,0.0,0.0,86,0.00,,,-99.99,Weather View 32 v70,2013-06-15 12:38:00,
2013-06-15 05:53:00,51.0,47.6,29.82,WSW,248,0.0,0.0,88,0.00,,,-99.99,Weather View 32 v70,2013-06-15 12:53:00,
2013-06-15 06:08:00,50.0,46.3,29.83,WSW,248,0.0,0.0,87,0.00,,,-99.99,Weather View 32 v70,2013-06-15 13:08:00,
2013-06-15 06:15:00,51.0,47.9,29.83,WSW,248,0.0,0.0,89,0.00,,,-99.99,Weather View 32 v70,2013-06-15 13:15:00,
2013-06-15 06:23:00,51.0,47.9,29.83,WSW,248,0.0,0.0,89,0.00,,,-99.99,Weather View 32 v70,2013-06-15 13:23:00,
2013-06-15 06:38:00,53.0,50.1,29.84,WSW,248,0.0,0.0,90,0.00,,,-99.99,Weather View 32 v70,2013-06-15 13:38:00,
2013-06-15 06:53:00,55.0,51.8,29.84,WSW,248,0.0,0.0,89,0.00,,,-99.99,Weather View 32 v70,2013-06-15 13:53:00,
2013-06-15 07:08:00,55.0,51.5,29.85,WSW,248,0.0,0.0,88,0.00,,,-99.99,Weather View 32 v70,2013-06-15 14:08:00,
2013-06-15 07:15:00,56.0,51.5,29.85,WSW,248,0.0,0.0,85,0.00,,,-99.99,Weather View 32 v70,2013-06-15 14:15:00,
2013-06-15 07:23:00,56.0,51.5,29.85,WSW,248,0.0,0.0,85,0.00,,,-99.99,Weather View 32 v70,2013-06-15 14:23:00,
2013-06-15 07:38:00,56.0,51.5,29.86,WSW,248,0.0,0.0,85,0.00,,,-99.99,Weather View 32 v70,2013-06-15 14:38:00,
2013-06-15 07:53:00,58.0,53.2,29.85,WSW,248,0.0,0.0,84,0.00,,,-99.99,Weather View 32 v70,2013-06-15 14:53:00,
2013-06-15 08:08:00,57.0,51.2,29.85,WSW,248,0.0,0.0,81,0.00,,,-99.99,Weather View 32 v70,2013-06-15 15:08:00,
2013-06-15 08:15:00,58.0,52.2,29.85,WSW,248,0.0,0.0,81,0.00,,,-99.99,Weather View 32 v70,2013-06-15 15:15:00,
2013-06-15 08:23:00,58.0,52.2,29.85,WSW,248,0.0,0.0,81,0.00,,,-99.99,Weather View 32 v70,2013-06-15 15:23:00,
2013-06-15 08:38:00,59.0,52.5,29.85,WSW,248,0.0,0.0,79,0.00,,,-99.99,Weather View 32 v70,2013-06-15 15:38:00,
2013-06-15 08:53:00,60.0,52.4,29.86,WSW,248,0.0,0.0,76,0.00,,,-99.99,Weather View 32 v70,2013-06-15 15:53:00,
2013-06-15 09:08:00,59.0,52.5,29.87,WSW,248,0.0,0.0,79,0.00,,,-99.99,Weather View 32 v70,2013-06-15 16:08:00,
2013-06-15 09:15:00,60.0,53.8,29.88,WSW,248,0.0,0.0,80,0.00,,,-99.99,Weather View 32 v70,2013-06-15 16:15:00,
2013-06-15 09:23:00,60.0,53.8,29.88,WSW,248,0.0,0.0,80,0.00,,,-99.99,Weather View 32 v70,2013-06-15 16:23:00,
2013-06-15 09:38:00,60.0,53.5,29.88,WSW,248,0.0,0.0,79,0.00,,,-99.99,Weather View 32 v70,2013-06-15 16:38:00,
2013-06-15 09:53:00,60.0,53.1,29.89,WSW,248,0.0,0.0,78,0.00,,,-99.99,Weather View 32 v70,2013-06-15 16:53:00,
2013-06-15 10:08:00,61.0,53.7,29.89,WSW,248,0.0,0.0,77,0.00,,,-99.99,Weather View 32 v70,2013-06-15 17:08:00,
2013-06-15 10:15:00,62.0,54.7,29.89,WSW,248,0.0,0.0,77,0.00,,,-99.99,Weather View 32 v70,2013-06-15 17:15:00,
2013-06-15 10:23:00,62.0,54.7,29.89,WSW,248,0.0,0.0,77,0.00,,,-99.99,Weather View 32 v70,2013-06-15 17:23:00,
2013-06-15 10:38:00,62.0,54.3,29.90,WSW,248,0.0,0.0,76,0.00,,,-99.99,Weather View 32 v70,2013-06-15 17:38:00,
2013-06-15 10:53:00,62.0,54.0,29.90,WSW,248,0.0,0.0,75,0.00,,,-99.99,Weather View 32 v70,2013-06-15 17:53:00,
2013-06-15 11:08:00,63.0,54.9,29.90,WSW,248,0.0,0.0,75,0.00,,,-99.99,Weather View 32 v70,2013-06-15 18:08:00,
2013-06-15 11:15:00,64.0,55.1,29.91,WSW,248,0.0,0.0,73,0.00,,,-99.99,Weather View 32 v70,2013-06-15 18:15:00,
2013-06-15 11:23:00,64.0,55.1,29.91,WSW,248,0.0,0.0,73,0.00,,,-99.99,Weather View 32 v70,2013-06-15 18:23:00,
2013-06-15 11:38:00,63.0,54.2,29.91,WSW,248,0.0,0.0,73,0.00,,,-99.99,Weather View 32 v70,2013-06-15 18:38:00,
2013-06-15 11:53:00,65.0,54.9,29.91,WSW,248,0.0,0.0,70,0.00,,,-99.99,Weather View 32 v70,2013-06-15 18:53:00,
2013-06-15 12:08:00,64.0,54.4,29.91,WSW,248,0.0,0.0,71,0.00,,,-99.99,Weather View 32 v70,2013-06-15 19:08:00,
2013-06-15 12:15:00,65.0,54.2,29.91,WSW,248,0.0,0.0,68,0.00,,,-99.99,Weather View 32 v70,2013-06-15 19:15:00,
2013-06-15 12:23:00,65.0,54.2,29.91,WSW,248,0.0,0.0,68,0.00,,,-99.99,Weather View 32 v70,2013-06-15 19:23:00,
2013-06-15 12:38:00,66.0,55.5,29.91,WSW,248,0.0,0.0,69,0.00,,,-99.99,Weather View 32 v70,2013-06-15 19:38:00,
2013-06-15 12:53:00,67.0,56.1,29.91,WSW,248,0.0,0.0,68,0.00,,,-99.99,Weather View 32 v70,2013-06-15 19:53:00,
2013-06-15 13:08:00,66.0,54.7,29.91,WSW,248,0.0,0.0,67,0.00,,,-99.99,Weather View 32 v70,2013-06-15 20:08:00,
2013-06-15 13:15:00,67.0,55.2,29.91,WSW,248,0.0,0.0,66,0.00,,,-99.99,Weather View 32 v70,2013-06-15 20:15:00,
2013-06-15 13:23:00,67.0,55.2,29.91,WSW,248,0.0,0.0,66,0.00,,,-99.99,Weather View 32 v70,2013-06-15 20:23:00,
2013-06-15 13:38:00,67.0,54.8,29.91,WSW,248,0.0,0.0,65,0.00,,,-99.99,Weather View 32 v70,2013-06-15 20:38:00,
2013-06-15 13:53:00,68.0,55.3,29.92,WSW,248,0.0,0.0,64,0.00,,,-99.99,Weather View 32 v70,2013-06-15 20:53:00,
2013-06-15 14:08:00,68.0,55.3,29.91,WSW,248,0.0,0.0,64,0.00,,,-99.99,Weather View 32 v70,2013-06-15 21:08:00,
2013-06-15 14:15:00,68.0,55.8,29.91,WSW,248,0.0,0.0,65,0.00,,,-99.99,Weather View 32 v70,2013-06-15 21:15:00,
2013-06-15 14:23:00,68.0,55.8,29.91,WSW,248,0.0,0.0,65,0.00,,,-99.99,Weather View 32 v70,2013-06-15 21:23:00,
2013-06-15 14:38:00,69.0,55.8,29.91,WSW,248,0.0,0.0,63,0.00,,,-99.99,Weather View 32 v70,2013-06-15 21:38:00,
2013-06-15 14:53:00,70.0,56.8,29.91,WSW,248,0.0,0.0,63,0.00,,,-99.99,Weather View 32 v70,2013-06-15 21:53:00,
2013-06-15 15:08:00,69.0,55.4,29.91,WSW,248,0.0,0.0,62,0.00,,,-99.99,Weather View 32 v70,2013-06-15 22:08:00,
2013-06-15 15:15:00,71.0,56.4,29.92,WSW,248,0.0,0.0,60,0.00,,,-99.99,Weather View 32 v70,2013-06-15 22:15:00,
2013-06-15 15:23:00,71.0,56.4,29.92,WSW,248,0.0,0.0,60,0.00,,,-99.99,Weather View 32 v70,2013-06-15 22:23:00,
2013-06-15 15:38:00,71.0,55.9,29.92,WSW,248,0.0,0.0,59,0.00,,,-99.99,Weather View 32 v70,2013-06-15 22:38:00,
2013-06-15 15:53:00,70.0,55.4,29.92,WSW,248,0.0,0.0,60,0.00,,,-99.99,Weather View 32 v70,2013-06-15 22:53:00,
2013-06-15 16:08:00,72.0,55.9,29.92,WSW,248,0.0,0.0,57,0.00,,,-99.99,Weather View 32 v70,2013-06-15 23:08:00,
2013-06-15 16:15:00,72.0,55.9,29.92,WSW,248,0.0,0.0,57,0.00,,,-99.99,Weather View 32 v70,2013-06-15 23:15:00,
2013-06-15 16:23:00,72.0,55.9,29.92,WSW,248,0.0,0.0,57,0.00,,,-99.99,Weather View 32 v70,2013-06-15 23:23:00,
2013-06-15 16:38:00,75.0,51.5,29.92,WSW,248,0.0,0.0,44,0.00,,,-99.99,Weather View 32 v70,2013-06-15 23:38:00,
2013-06-15 16:53:00,73.0,50.9,29.92,WSW,248,0.0,0.0,46,0.00,,,-99.99,Weather View 32 v70,2013-06-15 23:53:00,
2013-06-15 17:08:00,74.0,51.2,29.93,WSW,248,0.0,0.0,45,0.00,,,-99.99,Weather View 32 v70,2013-06-16 00:08:00,
2013-06-15 17:15:00,73.0,50.3,29.93,WSW,248,0.0,0.0,45,0.00,,,-99.99,Weather View 32 v70,2013-06-16 00:15:00,
2013-06-15 17:23:00,73.0,50.3,29.93,WSW,248,0.0,0.0,45,0.00,,,-99.99,Weather View 32 v70,2013-06-16 00:23:00,
2013-06-15 17:38:00,72.0,50.0,29.93,WSW,248,0.0,0.0,46,0.00,,,-99.99,Weather View 32 v70,2013-06-16 00:38:00,
2013-06-15 17:53:00,72.0,50.0,29.93,WSW,248,0.0,0.0,46,0.00,,,-99.99,Weather View 32 v70,2013-06-16 00:53:00,
2013-06-15 18:08:00,71.0,50.8,29.94,WSW,248,0.0,0.0,49,0.00,,,-99.99,Weather View 32 v70,2013-06-16 01:08:00,
2013-06-15 18:15:00,70.0,49.9,29.94,WSW,248,0.0,0.0,49,0.00,,,-99.99,Weather View 32 v70,2013-06-16 01:15:00,
2013-06-15 18:23:00,70.0,49.9,29.94,WSW,248,0.0,0.0,49,0.00,,,-99.99,Weather View 32 v70,2013-06-16 01:23:00,
2013-06-15 18:38:00,69.0,49.5,29.94,WSW,248,0.0,0.0,50,0.00,,,-99.99,Weather View 32 v70,2013-06-16 01:38:00,
2013-06-15 18:53:00,69.0,49.0,29.94,WSW,248,0.0,0.0,49,0.00,,,-99.99,Weather View 32 v70,2013-06-16 01:53:00,
2013-06-15 19:08:00,69.0,49.5,29.94,WSW,248,0.0,0.0,50,0.00,,,-99.99,Weather View 32 v70,2013-06-16 02:08:00,
2013-06-15 19:15:00,69.0,49.5,29.95,WSW,248,0.0,0.0,50,0.00,,,-99.99,Weather View 32 v70,2013-06-16 02:15:00,
2013-06-15 19:23:00,69.0,49.5,29.95,WSW,248,0.0,0.0,50,0.00,,,-99.99,Weather View 32 v70,2013-06-16 02:23:00,
2013-06-15 19:38:00,68.0,49.7,29.96,WSW,248,0.0,0.0,52,0.00,,,-99.99,Weather View 32 v70,2013-06-16 02:38:00,
2013-06-15 19:53:00,67.0,49.3,29.96,WSW,248,0.0,0.0,53,0.00,,,-99.99,Weather View 32 v70,2013-06-16 02:53:00,
2013-06-15 20:08:00,66.0,49.3,29.96,WSW,248,0.0,0.0,55,0.00,,,-99.99,Weather View 32 v70,2013-06-16 03:08:00,
2013-06-15 20:15:00,65.0,49.4,29.96,WSW,248,0.0,0.0,57,0.00,,,-99.99,Weather View 32 v70,2013-06-16 03:15:00,
2013-06-15 20:23:00,65.0,49.4,29.96,WSW,248,0.0,0.0,57,0.00,,,-99.99,Weather View 32 v70,2013-06-16 03:23:00,
2013-06-15 20:38:00,64.0,49.8,29.96,WSW,248,0.0,0.0,60,0.00,,,-99.99,Weather View 32 v70,2013-06-16 03:38:00,
2013-06-15 20:53:00,63.0,49.7,29.96,WSW,248,0.0,0.0,62,0.00,,,-99.99,Weather View 32 v70,2013-06-16 03:53:00,
2013-06-15 21:08:00,62.0,49.7,29.97,WSW,248,0.0,0.0,64,0.00,,,-99.99,Weather View 32 v70,2013-06-16 04:08:00,
2013-06-15 21:15:00,61.0,49.9,29.97,WSW,248,0.0,0.0,67,0.00,,,-99.99,Weather View 32 v70,2013-06-16 04:15:00,
2013-06-15 21:23:00,61.0,49.9,29.97,WSW,248,0.0,0.0,67,0.00,,,-99.99,Weather View 32 v70,2013-06-16 04:23:00,
2013-06-15 21:38:00,60.0,49.8,29.98,WSW,248,0.0,0.0,69,0.00,,,-99.99,Weather View 32 v70,2013-06-16 04:38:00,
2013-06-15 21:53:00,59.0,49.2,29.98,WSW,248,0.0,0.0,70,0.00,,,-99.99,Weather View 32 v70,2013-06-16 04:53:00,
2013-06-15 22:08:00,59.0,50.0,29.98,WSW,248,0.0,0.0,72,0.00,,,-99.99,Weather View 32 v70,2013-06-16 05:08:00,
2013-06-15 22:23:00,58.0,49.7,29.99,WSW,248,0.0,0.0,74,0.00,,,-99.99,Weather View 32 v70,2013-06-16 05:23:00,
2013-06-15 22:38:00,58.0,50.1,29.99,WSW,248,0.0,0.0,75,0.00,,,-99.99,Weather View 32 v70,2013-06-16 05:38:00,
2013-06-15 22:53:00,58.0,50.5,29.99,WSW,248,0.0,0.0,76,0.00,,,-99.99,Weather View 32 v70,2013-06-16 05:53:00,
2013-06-15 23:08:00,57.0,49.8,29.99,WSW,248,0.0,0.0,77,0.00,,,-99.99,Weather View 32 v70,2013-06-16 06:08:00,
2013-06-15 23:23:00,57.0,49.8,29.98,WSW,248,0.0,0.0,77,0.00,,,-99.99,Weather View 32 v70,2013-06-16 06:23:00,
2013-06-15 23:38:00,58.0,50.1,29.98,WSW,248,0.0,0.0,75,0.00,,,-99.99,Weather View 32 v70,2013-06-16 06:38:00,
2013-06-15 23:53:00,56.0,48.9,29.98,WSW,248,0.0,0.0,77,0.00,,,-99.99,Weather View 32 v70,2013-06-16 06:53:00,